Terminal Aerodrome Forecast
Issued by NWS

Home | Current Version | Previous Version | Text Only | Print | Product List | Glossary On
Versions: 1 2 3 4 5 6 7 8 9 10 11 12 13 14 15 16
000
FTUS43 KDVN 271736
TAFCID
TAF
KCID 271736Z 2718/2818 28014G24KT P6SM SKC
     FM272300 31011KT P6SM SCT050
     FM280300 32008KT P6SM SCT025 BKN050
     FM280700 33011KT P6SM VCSH BKN025
     FM281400 33014KT P6SM OVC025=

USA.gov is the U.S. government's official web portal to all federal, state and local government web resources and services.